createdAt,value
2023-05-12T06:54:18.111Z,58.31
2023-05-12T06:55:18.425Z,57.83
2023-05-12T06:56:17.678Z,57.48
2023-05-12T06:57:17.657Z,58.06
2023-05-12T06:58:17.668Z,55.09
2023-05-12T06:59:18.502Z,56.61
2023-05-12T07:00:17.627Z,51.72
2023-05-12T07:01:17.600Z,52.47
2023-05-12T07:02:17.622Z,56.32
2023-05-12T07:03:17.689Z,54.46
2023-05-12T07:04:17.641Z,56.83
2023-05-12T07:05:17.728Z,56.81
2023-05-12T07:06:17.580Z,57.12
2023-05-12T07:07:17.616Z,57.31
2023-05-12T07:08:17.513Z,54.29
2023-05-12T07:09:18.359Z,54.03
2023-05-12T07:10:17.532Z,55.38
2023-05-12T07:11:17.545Z,56.54
2023-05-12T07:12:17.484Z,58.23
2023-05-12T07:13:17.532Z,55.85
2023-05-12T07:14:17.528Z,55.04
2023-05-12T07:15:17.526Z,55.69
2023-05-12T07:16:17.619Z,56.84
2023-05-12T07:17:17.495Z,56.78
2023-05-12T07:18:17.518Z,53.75
2023-05-12T07:19:17.422Z,56.86
2023-05-12T07:20:17.454Z,57.50
2023-05-12T07:21:17.459Z,57.98
2023-05-12T07:22:17.388Z,53.83
2023-05-12T07:23:17.639Z,53.63
2023-05-12T07:24:17.362Z,56.84
2023-05-12T07:25:18.089Z,53.61
2023-05-12T07:26:17.368Z,51.73
2023-05-12T07:27:17.345Z,55.51
2023-05-12T07:28:17.368Z,56.69
2023-05-12T07:29:17.307Z,56.25
2023-05-12T07:30:17.357Z,55.72
2023-05-12T07:31:17.410Z,51.64
2023-05-12T07:32:17.357Z,51.33
2023-05-12T07:33:17.338Z,54.46
2023-05-12T07:34:17.358Z,53.09
2023-05-12T07:35:17.454Z,56.02
2023-05-12T07:36:17.248Z,55.11
2023-05-12T07:37:17.309Z,57.67
2023-05-12T07:38:17.304Z,53.30
2023-05-12T07:39:17.224Z,53.97
2023-05-12T07:40:17.885Z,54.11
2023-05-12T07:41:17.997Z,53.79
2023-05-12T07:42:19.425Z,54.16
2023-05-12T07:43:17.227Z,54.24
2023-05-12T07:44:17.216Z,54.74
2023-05-12T07:45:17.275Z,55.65
2023-05-12T07:46:17.266Z,54.17
2023-05-12T07:47:17.330Z,52.61
2023-05-12T07:48:17.133Z,54.10
2023-05-12T07:49:17.167Z,53.25
2023-05-12T07:50:17.133Z,56.29
2023-05-12T07:51:17.292Z,57.34
2023-05-12T07:52:17.099Z,57.76
2023-05-12T07:53:17.149Z,55.63
2023-05-12T07:54:17.150Z,52.24
2023-05-12T07:55:17.214Z,53.22
2023-05-12T07:56:17.055Z,56.15
2023-05-12T07:57:17.136Z,53.03
2023-05-12T07:58:17.736Z,51.93
2023-05-12T07:59:17.020Z,54.94
2023-05-12T08:00:17.022Z,49.27
2023-05-12T08:01:17.026Z,52.90
2023-05-12T08:02:17.356Z,55.17
2023-05-12T08:03:17.183Z,54.68
2023-05-12T08:04:17.028Z,51.83
2023-05-12T08:05:17.101Z,54.47
2023-05-12T08:06:17.025Z,55.24
2023-05-12T08:07:16.937Z,55.71
2023-05-12T08:08:16.940Z,55.45
2023-05-12T08:09:16.948Z,56.38
2023-05-12T08:10:16.968Z,53.66
2023-05-12T08:11:16.958Z,55.36
2023-05-12T08:12:16.877Z,55.63
2023-05-12T08:13:16.869Z,55.02
2023-05-12T08:14:16.897Z,53.71
2023-05-12T08:15:16.874Z,53.36
2023-05-12T08:16:16.948Z,55.50
2023-05-12T08:17:16.966Z,54.49
2023-05-12T08:18:16.834Z,54.54
2023-05-12T08:19:16.883Z,56.41
2023-05-12T08:20:16.826Z,54.56
2023-05-12T08:21:16.855Z,52.95
2023-05-12T08:22:16.785Z,52.75
2023-05-12T08:23:16.852Z,57.66
2023-05-12T08:24:17.069Z,54.15
2023-05-12T08:25:16.772Z,53.90
2023-05-12T08:26:16.770Z,56.93
2023-05-12T08:27:16.741Z,55.26
2023-05-12T08:28:16.832Z,53.26
2023-05-12T08:29:16.802Z,55.41
2023-05-12T08:30:17.609Z,56.85
2023-05-12T08:31:16.796Z,53.29
2023-05-12T08:32:16.706Z,53.78
2023-05-12T08:33:16.775Z,54.46
2023-05-12T08:34:16.664Z,54.82
2023-05-12T08:35:16.644Z,54.93
2023-05-12T08:36:16.659Z,50.63
2023-05-12T08:37:16.670Z,51.86
2023-05-12T08:38:16.622Z,54.42
2023-05-12T08:39:49.246Z,53.97
2023-05-12T08:40:16.936Z,58.32
2023-05-12T08:41:17.039Z,55.70
2023-05-12T08:42:16.689Z,55.75
2023-05-12T08:43:16.641Z,53.47
2023-05-12T08:44:16.593Z,55.86
2023-05-12T08:45:16.664Z,51.75
2023-05-12T08:46:49.215Z,52.63
2023-05-12T08:47:16.933Z,55.18
2023-05-12T08:48:50.554Z,54.41
2023-05-12T08:49:16.779Z,54.75
2023-05-12T08:50:16.791Z,53.23
2023-05-12T08:51:16.481Z,55.74
2023-05-12T08:52:16.538Z,57.44
2023-05-12T08:53:43.062Z,53.23
2023-05-12T08:54:16.703Z,54.71
2023-05-12T08:55:16.815Z,51.51
2023-05-12T08:57:17.497Z,56.43
2023-05-12T08:58:16.496Z,53.77
2023-05-12T08:59:16.451Z,55.76
2023-05-12T09:00:16.432Z,53.67
2023-05-12T09:01:16.626Z,57.48
2023-05-12T09:02:16.503Z,57.68
2023-05-12T09:03:16.452Z,56.47
2023-05-12T09:04:16.554Z,56.68
2023-05-12T09:05:16.392Z,52.69
2023-05-12T09:06:16.391Z,53.12
2023-05-12T09:07:16.382Z,56.84
2023-05-12T09:08:16.337Z,57.09
2023-05-12T09:09:16.336Z,53.16
2023-05-12T09:10:29.948Z,54.98
2023-05-12T09:11:18.377Z,56.05
2023-05-12T09:12:49.077Z,57.70
2023-05-12T09:13:17.146Z,56.72
2023-05-12T09:14:16.336Z,54.28
2023-05-12T09:15:16.300Z,51.84
2023-05-12T09:16:16.348Z,59.81
2023-05-12T09:17:16.241Z,54.76
2023-05-12T09:18:16.312Z,52.83
2023-05-12T09:19:16.278Z,56.72
2023-05-12T09:20:27.693Z,55.10
2023-05-12T09:21:18.214Z,57.29
2023-05-12T09:22:16.197Z,55.94
2023-05-12T09:23:16.213Z,57.06
2023-05-12T09:24:16.206Z,55.91
2023-05-12T09:25:16.338Z,54.38
2023-05-12T09:26:16.182Z,55.09
2023-05-12T09:27:16.166Z,55.62
2023-05-12T09:28:16.199Z,59.59
2023-05-12T09:29:27.722Z,55.96
2023-05-12T09:30:18.138Z,56.77
2023-05-12T09:31:16.182Z,55.88
2023-05-12T09:32:16.200Z,55.74
2023-05-12T09:33:16.131Z,55.52
2023-05-12T09:34:16.084Z,54.92
2023-05-12T09:35:16.067Z,54.08
2023-05-12T09:36:16.122Z,54.41
2023-05-12T09:37:16.085Z,54.54
2023-05-12T09:38:16.052Z,56.40
2023-05-12T09:39:16.058Z,55.33
2023-05-12T09:40:16.013Z,53.90
2023-05-12T09:41:15.969Z,56.56
2023-05-12T09:42:16.008Z,56.51
2023-05-12T09:43:16.014Z,57.60
2023-05-12T09:44:16.003Z,56.93
2023-05-12T09:45:16.921Z,56.03
2023-05-12T09:46:15.965Z,54.11
2023-05-12T09:47:15.920Z,56.74
2023-05-12T09:48:15.998Z,56.18
2023-05-12T09:49:16.134Z,52.17
2023-05-12T09:50:15.918Z,49.99
2023-05-12T09:51:15.940Z,54.02
2023-05-12T09:52:15.856Z,55.10
2023-05-12T09:53:15.948Z,53.33
2023-05-12T09:54:15.849Z,55.11
2023-05-12T09:55:15.848Z,56.89
2023-05-12T09:56:15.806Z,54.94
2023-05-12T09:57:15.841Z,56.52
2023-05-12T09:58:15.831Z,55.42
2023-05-12T09:59:15.862Z,52.52
2023-05-12T10:00:30.311Z,56.11
2023-05-12T10:01:23.475Z,56.53
2023-05-12T10:02:17.803Z,56.10
2023-05-12T10:03:16.401Z,54.99
2023-05-12T10:04:15.813Z,56.45
2023-05-12T10:05:15.759Z,52.66
2023-05-12T10:06:15.699Z,54.10
2023-05-12T10:07:15.724Z,56.25
2023-05-12T10:08:15.737Z,55.79
2023-05-12T10:09:15.720Z,53.52
2023-05-12T10:10:15.653Z,56.13
2023-05-12T10:11:16.260Z,56.47
2023-05-12T10:12:15.698Z,54.19
2023-05-12T10:13:15.671Z,56.64
2023-05-12T10:14:15.670Z,54.91
2023-05-12T10:15:15.590Z,54.08
2023-05-12T10:16:15.727Z,55.16
2023-05-12T10:17:16.665Z,55.80
2023-05-12T10:18:15.742Z,54.74
2023-05-12T10:19:15.693Z,56.86
2023-05-12T10:20:15.634Z,52.04
2023-05-12T10:21:15.604Z,54.31
2023-05-12T10:22:15.603Z,54.21
2023-05-12T10:23:15.577Z,51.86
2023-05-12T10:24:15.548Z,51.48
2023-05-12T10:25:15.582Z,54.34
2023-05-12T10:26:15.607Z,56.29
2023-05-12T10:27:15.531Z,52.74
2023-05-12T10:28:15.483Z,53.33
2023-05-12T10:29:15.540Z,52.27
2023-05-12T10:30:15.627Z,51.15
2023-05-12T10:31:15.547Z,55.94
2023-05-12T10:32:15.455Z,55.82
2023-05-12T10:33:15.450Z,56.25
2023-05-12T10:34:15.452Z,54.37
2023-05-12T10:35:15.493Z,53.54
2023-05-12T10:36:15.444Z,51.21
2023-05-12T10:37:15.436Z,52.90
2023-05-12T10:38:15.421Z,51.41
2023-05-12T10:39:15.455Z,53.85
2023-05-12T10:40:15.503Z,53.01
2023-05-12T10:41:15.417Z,49.78
2023-05-12T10:42:15.382Z,54.34
2023-05-12T10:43:15.430Z,51.07
2023-05-12T10:44:15.376Z,51.16
2023-05-12T10:45:15.350Z,53.12
2023-05-12T10:46:15.924Z,51.43
2023-05-12T10:47:15.360Z,52.81
2023-05-12T10:48:15.347Z,53.92
2023-05-12T10:49:15.298Z,54.16
2023-05-12T10:50:15.311Z,54.07
2023-05-12T10:51:15.297Z,50.76
2023-05-12T10:52:15.260Z,52.56
2023-05-12T10:53:15.295Z,54.08
2023-05-12T10:54:16.013Z,54.74
2023-05-12T10:55:15.423Z,53.98
2023-05-12T10:56:16.141Z,52.57
2023-05-12T10:57:17.794Z,53.13
2023-05-12T10:58:16.593Z,52.38
2023-05-12T10:59:15.563Z,53.59
2023-05-12T11:00:15.637Z,54.21
2023-05-12T11:01:15.680Z,52.41
2023-05-12T11:02:15.795Z,54.09
2023-05-12T11:03:16.098Z,53.22
2023-05-12T11:04:15.421Z,51.90
2023-05-12T11:05:15.304Z,54.54
2023-05-12T11:06:15.649Z,55.26
2023-05-12T11:07:16.510Z,54.54
2023-05-12T11:08:15.747Z,53.62
2023-05-12T11:09:15.631Z,53.89
2023-05-12T11:10:15.387Z,50.85
2023-05-12T11:11:16.142Z,51.64
2023-05-12T11:12:15.075Z,50.24
2023-05-12T11:13:15.941Z,53.31
2023-05-12T11:14:15.125Z,54.31
2023-05-12T11:15:17.301Z,55.01
2023-05-12T11:16:16.421Z,52.73
2023-05-12T11:17:15.034Z,53.02
2023-05-12T11:18:15.308Z,52.28
2023-05-12T11:19:15.036Z,53.27
2023-05-12T11:20:15.078Z,54.44
2023-05-12T11:21:14.993Z,54.96
2023-05-12T11:22:15.004Z,54.60
2023-05-12T11:23:15.065Z,54.38
2023-05-12T11:24:14.962Z,52.97
2023-05-12T11:25:14.989Z,54.10
2023-05-12T11:26:14.968Z,55.03
2023-05-12T11:27:16.000Z,53.95
2023-05-12T11:28:15.447Z,52.03
2023-05-12T11:29:14.893Z,54.92
2023-05-12T11:30:14.980Z,56.23
2023-05-12T11:31:15.260Z,53.34
2023-05-12T11:32:14.895Z,54.10
2023-05-12T11:33:47.494Z,54.70
2023-05-12T11:34:15.230Z,55.51
2023-05-12T11:35:15.174Z,55.97
2023-05-12T11:36:15.097Z,54.36
2023-05-12T11:37:14.816Z,54.49
2023-05-12T11:38:14.872Z,56.75
2023-05-12T11:39:14.768Z,55.76
2023-05-12T11:40:15.199Z,54.39
2023-05-12T11:41:14.783Z,53.12
2023-05-12T11:42:16.313Z,52.61
2023-05-12T11:43:14.800Z,52.04
2023-05-12T11:44:14.782Z,54.73
2023-05-12T11:45:14.793Z,53.47
2023-05-12T11:46:14.769Z,50.64
2023-05-12T11:47:14.690Z,53.74
2023-05-12T11:48:14.938Z,52.92
2023-05-12T11:49:14.711Z,51.25
2023-05-12T11:50:47.272Z,53.15
2023-05-12T11:51:14.942Z,49.52
2023-05-12T11:52:15.693Z,53.67
2023-05-12T11:53:14.902Z,53.83
2023-05-12T11:54:14.689Z,52.63
2023-05-12T11:55:14.669Z,52.66
2023-05-12T11:56:14.615Z,54.46
2023-05-12T11:57:15.904Z,55.59
2023-05-12T11:58:14.603Z,57.07
2023-05-12T11:59:14.617Z,53.13
2023-05-12T12:00:14.595Z,54.96
2023-05-12T12:01:14.568Z,53.98
2023-05-12T12:02:14.583Z,52.59
2023-05-12T12:03:14.904Z,52.49
2023-05-12T12:04:14.722Z,52.09
2023-05-12T12:05:14.559Z,53.69
2023-05-12T12:06:14.552Z,52.90
2023-05-12T12:07:14.625Z,53.60
2023-05-12T12:08:14.496Z,54.45
2023-05-12T12:09:14.501Z,52.73
2023-05-12T12:10:14.481Z,50.72
2023-05-12T12:11:14.487Z,51.96
2023-05-12T12:12:14.490Z,52.50
2023-05-12T12:13:14.495Z,53.13
2023-05-12T12:14:14.426Z,53.07
2023-05-12T12:15:14.449Z,52.65
2023-05-12T12:16:14.999Z,51.58
2023-05-12T12:17:15.489Z,53.77
2023-05-12T12:18:14.455Z,51.63
2023-05-12T12:19:14.469Z,50.17
2023-05-12T12:20:14.434Z,50.12
2023-05-12T12:21:14.372Z,54.19
2023-05-12T12:22:14.447Z,54.10
2023-05-12T12:23:51.312Z,53.82
2023-05-12T12:24:15.595Z,53.27
2023-05-12T12:25:14.540Z,49.52
2023-05-12T12:26:14.358Z,49.46
2023-05-12T12:27:14.343Z,51.77
2023-05-12T12:28:14.349Z,54.19
2023-05-12T12:29:14.334Z,53.57
2023-05-12T12:30:14.374Z,52.91
2023-05-12T12:31:14.404Z,51.49
2023-05-12T12:32:14.236Z,52.34
2023-05-12T12:33:14.993Z,51.26
2023-05-12T12:34:14.264Z,53.17
2023-05-12T12:35:14.240Z,52.37
2023-05-12T12:36:14.260Z,51.90
2023-05-12T12:37:14.205Z,53.29
2023-05-12T12:38:14.185Z,51.57
2023-05-12T12:39:14.235Z,53.96
2023-05-12T12:40:14.254Z,52.77
2023-05-12T12:41:14.256Z,51.20
2023-05-12T12:42:14.193Z,51.51
2023-05-12T12:43:14.126Z,52.56
2023-05-12T12:44:14.267Z,53.68
2023-05-12T12:45:14.197Z,53.04
2023-05-12T12:46:14.165Z,52.65
2023-05-12T12:47:14.217Z,53.20
2023-05-12T12:48:14.170Z,52.93
2023-05-12T12:49:14.097Z,51.27
2023-05-12T12:50:14.175Z,54.17
2023-05-12T12:51:14.290Z,54.53
2023-05-12T12:52:14.124Z,54.71
2023-05-12T12:53:14.081Z,52.60
2023-05-12T12:54:48.004Z,52.93
2023-05-12T12:55:14.217Z,58.62
2023-05-12T12:56:14.286Z,53.68
2023-05-12T12:57:14.012Z,52.86
2023-05-12T12:58:14.085Z,52.62
2023-05-12T12:59:14.163Z,52.67
2023-05-12T13:00:13.994Z,54.35
2023-05-12T13:01:14.147Z,55.33
2023-05-12T13:02:14.023Z,52.52
2023-05-12T13:03:13.996Z,51.05
2023-05-12T13:04:14.234Z,52.51
2023-05-12T13:05:14.010Z,53.57
2023-05-12T13:06:13.914Z,54.53
2023-05-12T13:07:13.911Z,53.52
2023-05-12T13:08:14.047Z,53.55
2023-05-12T13:09:13.892Z,52.81
2023-05-12T13:10:14.200Z,51.55
2023-05-12T13:11:13.858Z,53.19
2023-05-12T13:12:13.968Z,53.70
2023-05-12T13:13:13.888Z,54.66
2023-05-12T13:14:13.907Z,54.07
2023-05-12T13:15:13.877Z,53.45
2023-05-12T13:16:13.995Z,52.54
2023-05-12T13:17:13.828Z,54.65
2023-05-12T13:18:14.087Z,55.28
2023-05-12T13:19:13.960Z,52.93
2023-05-12T13:20:13.868Z,51.43
2023-05-12T13:21:13.826Z,52.87
2023-05-12T13:22:13.792Z,53.78
2023-05-12T13:23:13.796Z,51.59
2023-05-12T13:24:13.730Z,51.19
2023-05-12T13:25:14.008Z,52.51
2023-05-12T13:26:13.766Z,52.78
2023-05-12T13:27:13.778Z,52.42
2023-05-12T13:28:13.743Z,51.83
2023-05-12T13:29:13.761Z,54.18
2023-05-12T13:30:14.027Z,52.89
2023-05-12T13:31:15.049Z,54.45
2023-05-12T13:32:13.779Z,51.44
2023-05-12T13:33:13.736Z,53.01
2023-05-12T13:34:13.813Z,53.72
2023-05-12T13:35:13.694Z,52.16
2023-05-12T13:36:13.650Z,51.74
2023-05-12T13:37:13.614Z,51.31
2023-05-12T13:38:13.716Z,51.81
2023-05-12T13:39:13.862Z,52.66
2023-05-12T13:40:13.832Z,53.74
2023-05-12T13:41:14.245Z,52.89
2023-05-12T13:42:13.744Z,53.57
2023-05-12T13:43:13.862Z,52.18
2023-05-12T13:44:13.605Z,51.48
2023-05-12T13:45:13.564Z,52.57
2023-05-12T13:46:13.556Z,52.01
2023-05-12T13:47:13.570Z,55.39
2023-05-12T13:48:13.960Z,52.53
2023-05-12T13:49:13.640Z,54.55
2023-05-12T13:50:13.669Z,53.67
2023-05-12T13:54:23.132Z,53.18
2023-05-12T13:55:27.155Z,54.88
2023-05-12T14:02:12.740Z,52.88
2023-05-12T14:03:14.042Z,53.08
2023-05-12T14:04:15.015Z,53.06
2023-05-12T14:05:13.591Z,53.08
2023-05-12T14:06:15.566Z,52.90
2023-05-12T14:07:13.849Z,52.96
2023-05-12T14:08:13.665Z,52.52
2023-05-12T14:09:13.478Z,53.73
2023-05-12T14:10:13.577Z,52.37
2023-05-12T14:11:13.392Z,54.67
2023-05-12T14:12:13.411Z,53.46
2023-05-12T14:16:50.881Z,54.32
2023-05-12T14:17:49.944Z,52.34
2023-05-12T14:18:50.154Z,53.88
2023-05-12T14:19:50.001Z,52.43
2023-05-12T14:20:50.469Z,52.51
2023-05-12T14:21:50.802Z,52.51
2023-05-12T14:22:49.962Z,53.17
2023-05-12T14:23:51.099Z,52.16
2023-05-12T14:24:51.780Z,52.60
2023-05-12T14:25:50.314Z,51.86
2023-05-12T14:26:50.128Z,52.78
2023-05-12T14:27:50.127Z,51.68
2023-05-12T14:28:51.289Z,51.32
2023-05-12T14:29:49.827Z,51.03
2023-05-12T14:30:49.821Z,51.48
2023-05-12T14:31:49.899Z,52.69
2023-05-12T14:32:49.735Z,51.60
2023-05-12T14:33:50.245Z,51.27
2023-05-12T14:34:49.636Z,50.85
2023-05-12T14:35:59.300Z,52.26
2023-05-12T14:36:51.648Z,51.96
2023-05-12T14:38:23.461Z,47.92
2023-05-12T14:38:49.778Z,50.35
2023-05-12T14:39:49.803Z,55.85
2023-05-12T14:40:49.715Z,52.71
2023-05-12T14:42:16.535Z,49.66
2023-05-12T14:42:50.504Z,53.31
2023-05-12T14:43:49.772Z,53.67
2023-05-12T14:45:24.240Z,51.05
2023-05-12T14:45:54.029Z,49.38
2023-05-12T14:46:51.067Z,52.16
2023-05-12T14:47:49.697Z,54.82
2023-05-12T14:48:49.750Z,55.19
2023-05-12T14:49:49.817Z,52.74
2023-05-12T14:51:19.908Z,53.51
2023-05-12T14:51:56.206Z,53.22
2023-05-12T14:52:49.510Z,53.87
2023-05-12T14:53:49.474Z,51.44
2023-05-12T14:54:49.531Z,54.23
2023-05-12T14:55:49.482Z,53.41
2023-05-12T14:56:49.461Z,53.07
2023-05-12T14:57:49.591Z,52.80
2023-05-12T14:58:49.512Z,54.99
2023-05-12T14:59:49.468Z,54.51
2023-05-12T15:00:49.512Z,54.54
2023-05-12T15:01:49.503Z,53.84
2023-05-12T15:02:49.498Z,52.20
2023-05-12T15:03:49.452Z,54.54
2023-05-12T15:04:49.951Z,54.08
2023-05-12T15:06:04.951Z,53.05
2023-05-12T15:06:51.390Z,54.89
2023-05-12T15:07:49.416Z,55.32
2023-05-12T15:08:50.054Z,54.06
2023-05-12T15:09:49.320Z,54.73
2023-05-12T15:10:49.340Z,55.13
2023-05-12T15:11:49.382Z,54.21
2023-05-12T15:12:49.258Z,52.95
2023-05-12T15:13:49.278Z,54.56
2023-05-12T15:14:49.245Z,52.70
2023-05-12T15:15:50.232Z,52.99
2023-05-12T15:16:49.277Z,52.74
2023-05-12T15:17:49.556Z,53.48
2023-05-12T15:18:49.337Z,50.96
2023-05-12T15:19:49.285Z,51.82
2023-05-12T15:20:49.314Z,51.38
2023-05-12T15:21:49.245Z,50.94
2023-05-12T15:22:49.212Z,52.26
2023-05-12T15:23:49.215Z,55.01
2023-05-12T15:24:49.178Z,53.00
2023-05-12T15:25:49.256Z,54.21
2023-05-12T15:26:49.125Z,53.80
2023-05-12T15:27:49.203Z,53.90
2023-05-12T15:28:49.124Z,55.28
2023-05-12T15:29:49.158Z,54.99
2023-05-12T15:30:49.206Z,55.65
2023-05-12T15:31:49.199Z,56.13
2023-05-12T15:32:49.199Z,57.54
2023-05-12T15:33:49.110Z,57.40
2023-05-12T15:34:49.112Z,56.73
2023-05-12T15:35:49.069Z,57.99
2023-05-12T15:36:49.071Z,57.82
2023-05-12T15:37:49.038Z,55.12
2023-05-12T15:38:49.100Z,57.45
2023-05-12T15:39:49.035Z,57.71
2023-05-12T15:40:49.030Z,57.86
2023-05-12T15:41:48.975Z,56.48
2023-05-12T15:42:48.976Z,58.23
2023-05-12T15:43:49.017Z,56.34
2023-05-12T15:44:49.210Z,56.61
2023-05-12T15:45:57.348Z,58.10
2023-05-12T15:46:59.652Z,62.56
2023-05-12T15:47:50.983Z,59.28
2023-05-12T15:48:48.955Z,68.17
2023-05-12T15:49:48.901Z,68.49
2023-05-12T15:50:48.968Z,71.43
2023-05-12T15:51:48.900Z,67.75
2023-05-12T15:52:48.951Z,71.43
2023-05-12T15:53:48.958Z,57.61
2023-05-12T15:54:48.872Z,67.04
2023-05-12T15:55:49.045Z,67.59
2023-05-12T15:56:48.937Z,66.07
2023-05-12T15:57:48.869Z,65.54
2023-05-12T15:58:48.825Z,65.30
2023-05-12T15:59:50.101Z,66.17
2023-05-12T16:01:21.511Z,65.96
2023-05-12T16:01:49.099Z,64.26
2023-05-12T16:02:50.277Z,66.25
2023-05-12T16:03:49.004Z,65.92
2023-05-12T16:04:48.768Z,64.94
2023-05-12T16:05:49.547Z,65.14
2023-05-12T16:06:48.848Z,65.33
2023-05-12T16:07:48.733Z,65.52
2023-05-12T16:08:48.747Z,64.91
2023-05-12T16:09:48.709Z,64.75
2023-05-12T16:10:48.745Z,64.53
2023-05-12T16:12:22.620Z,62.01
2023-05-12T16:12:48.889Z,57.96
2023-05-12T16:13:48.883Z,60.12
2023-05-12T16:14:48.674Z,63.46
2023-05-12T16:15:48.702Z,67.65
2023-05-12T16:16:48.733Z,69.20
2023-05-12T16:18:21.314Z,59.86
2023-05-12T16:18:48.911Z,62.92
2023-05-12T16:19:48.953Z,61.28
2023-05-12T16:21:22.688Z,61.85
2023-05-12T16:21:48.759Z,60.08
2023-05-12T16:23:21.229Z,62.86
2023-05-12T16:23:48.968Z,60.99
2023-05-12T16:24:48.886Z,57.43
2023-05-12T16:25:49.011Z,57.32
2023-05-12T16:27:21.537Z,57.70
2023-05-12T16:27:48.709Z,62.98
2023-05-12T16:29:22.077Z,60.52
2023-05-12T16:30:18.478Z,56.61
2023-05-12T16:33:08.464Z,58.28
2023-05-12T16:34:08.480Z,58.48
2023-05-12T16:35:09.933Z,58.67
2023-05-12T16:36:09.718Z,59.25
2023-05-12T16:37:09.588Z,59.33
2023-05-12T16:38:09.544Z,59.92
2023-05-12T16:39:09.585Z,59.12
2023-05-12T16:40:09.692Z,60.82
2023-05-12T16:41:09.573Z,60.26
2023-05-12T16:42:09.526Z,59.12
2023-05-12T16:43:09.694Z,59.60
2023-05-12T16:44:09.595Z,58.30
2023-05-12T16:45:09.487Z,58.89
2023-05-12T16:46:16.406Z,55.95
2023-05-12T16:47:09.646Z,58.63
2023-05-12T16:48:09.437Z,58.65
2023-05-12T16:49:09.474Z,57.87
2023-05-12T16:50:09.480Z,57.83
2023-05-12T16:51:09.417Z,60.22
2023-05-12T16:52:11.983Z,59.70
2023-05-12T16:53:09.447Z,57.27
2023-05-12T16:54:09.459Z,56.41
2023-05-12T16:55:42.606Z,56.22
2023-05-12T16:56:13.794Z,60.41
2023-05-12T16:57:47.264Z,56.15
2023-05-12T16:58:10.787Z,59.79
2023-05-12T16:59:09.633Z,56.52
2023-05-12T17:00:09.644Z,58.10
2023-05-12T17:01:10.475Z,56.93
2023-05-12T17:02:10.920Z,56.82
2023-05-12T17:03:09.555Z,57.07
2023-05-12T17:04:09.377Z,58.44
2023-05-12T17:05:09.531Z,57.17
2023-05-12T17:06:09.901Z,58.20
2023-05-12T17:07:09.432Z,60.54
2023-05-12T17:08:10.442Z,57.04
2023-05-12T17:09:09.438Z,57.54
2023-05-12T17:10:09.275Z,56.63
2023-05-12T17:11:10.143Z,56.52
2023-05-12T17:12:09.244Z,56.43
2023-05-12T17:13:09.407Z,54.68
2023-05-12T17:14:09.255Z,56.26
2023-05-12T17:15:09.304Z,51.12
2023-05-12T17:16:09.803Z,55.08
2023-05-12T17:17:09.925Z,51.09
2023-05-12T17:18:09.183Z,54.51
2023-05-12T17:20:10.185Z,53.73
2023-05-12T17:21:09.360Z,54.69
2023-05-12T17:22:09.221Z,52.91
2023-05-12T17:23:09.776Z,52.02
2023-05-12T17:24:09.859Z,54.77
2023-05-12T17:25:09.175Z,55.88
2023-05-12T17:26:09.927Z,55.94
2023-05-12T17:27:09.185Z,55.25
2023-05-12T17:28:09.078Z,55.39
2023-05-12T17:29:09.098Z,56.03
2023-05-12T17:30:09.092Z,53.70
2023-05-12T17:31:09.244Z,56.09
2023-05-12T17:32:09.105Z,54.63
2023-05-12T17:33:09.265Z,53.41
2023-05-12T17:34:09.049Z,53.87
2023-05-12T17:35:09.066Z,52.24
2023-05-12T17:36:12.958Z,51.91
2023-05-12T17:37:44.646Z,53.15
2023-05-12T17:38:09.946Z,56.14
2023-05-12T17:39:09.071Z,52.96
2023-05-12T17:40:09.015Z,56.65
2023-05-12T17:41:08.991Z,57.38
2023-05-12T17:42:08.962Z,53.40
2023-05-12T17:43:08.942Z,56.48
2023-05-12T17:44:08.981Z,51.41
2023-05-12T17:45:08.978Z,55.61
2023-05-12T17:46:08.924Z,53.27
2023-05-12T17:47:08.984Z,56.48
2023-05-12T17:48:08.976Z,53.33
2023-05-12T17:49:08.897Z,57.71
2023-05-12T17:50:09.131Z,56.75
2023-05-12T17:51:08.786Z,56.26
2023-05-12T17:52:08.856Z,56.98
2023-05-12T17:53:08.936Z,52.99
2023-05-12T17:54:08.802Z,57.06
2023-05-12T17:55:08.833Z,58.04
2023-05-12T17:56:08.868Z,57.47
2023-05-12T17:57:08.830Z,58.82
2023-05-12T17:58:08.979Z,58.28
2023-05-12T17:59:08.944Z,57.19
2023-05-12T18:00:08.912Z,56.11
2023-05-12T18:01:08.964Z,55.74
2023-05-12T18:02:08.749Z,54.32
2023-05-12T18:03:08.821Z,56.06
2023-05-12T18:04:08.662Z,55.33
2023-05-12T18:05:08.695Z,55.12
2023-05-12T18:06:08.669Z,56.77
2023-05-12T18:07:08.806Z,57.83
2023-05-12T18:08:08.731Z,55.42
2023-05-12T18:09:08.668Z,56.48
2023-05-12T18:10:08.664Z,54.35
2023-05-12T18:11:08.907Z,55.30
2023-05-12T18:12:08.612Z,57.94
2023-05-12T18:13:08.693Z,57.47
2023-05-12T18:14:09.344Z,59.81
2023-05-12T18:15:08.548Z,58.85
2023-05-12T18:16:12.808Z,58.73
2023-05-12T18:17:09.654Z,56.81
2023-05-12T18:18:08.637Z,57.94
2023-05-12T18:19:08.631Z,58.16
2023-05-12T18:20:08.594Z,58.40
2023-05-12T18:21:08.526Z,58.51
2023-05-12T18:22:08.575Z,61.30
2023-05-12T18:23:08.561Z,60.49
2023-05-12T18:24:09.433Z,61.81
2023-05-12T18:25:08.515Z,58.05
2023-05-12T18:26:08.600Z,59.69
2023-05-12T18:27:08.557Z,57.99
2023-05-12T18:28:08.464Z,59.68
2023-05-12T18:29:08.424Z,59.44
2023-05-12T18:30:08.406Z,56.37
2023-05-12T18:31:15.872Z,55.37
2023-05-12T18:32:10.440Z,59.86
2023-05-12T18:33:08.477Z,57.96
2023-05-12T18:34:08.402Z,57.47
2023-05-12T18:35:41.279Z,57.51
2023-05-12T18:36:08.817Z,55.20
2023-05-12T18:37:09.261Z,53.71
2023-05-12T18:38:08.444Z,56.07
2023-05-12T18:39:08.604Z,57.04
2023-05-12T18:40:08.446Z,54.20
2023-05-12T18:41:08.446Z,57.52
2023-05-12T18:42:08.417Z,58.02
2023-05-12T18:43:10.619Z,55.81
2023-05-12T18:44:08.305Z,57.00
2023-05-12T18:45:08.393Z,54.05
2023-05-12T18:46:08.304Z,53.98
2023-05-12T18:47:08.830Z,55.84
2023-05-12T18:48:09.407Z,55.78
2023-05-12T18:49:08.328Z,55.73
2023-05-12T18:50:08.220Z,57.11
2023-05-12T18:51:08.246Z,57.45
2023-05-12T18:52:08.241Z,57.59
2023-05-12T18:53:08.229Z,54.79
2023-05-12T18:54:08.213Z,56.59
2023-05-12T18:55:08.323Z,54.00
2023-05-12T18:56:08.226Z,55.21
2023-05-12T18:57:08.180Z,52.39
2023-05-12T18:58:08.297Z,54.01
2023-05-12T18:59:08.316Z,54.15
2023-05-12T19:00:08.151Z,57.70
2023-05-12T19:01:08.237Z,52.96
2023-05-12T19:02:08.232Z,56.47
2023-05-12T19:03:08.308Z,55.03
2023-05-12T19:04:08.102Z,54.93
2023-05-12T19:05:08.206Z,54.27
2023-05-12T19:06:08.194Z,53.28
2023-05-12T19:07:08.106Z,54.97
2023-05-12T19:08:08.304Z,50.57
2023-05-12T19:09:08.104Z,52.99
2023-05-12T19:10:09.916Z,53.02
2023-05-12T19:11:10.095Z,55.63
2023-05-12T19:12:08.960Z,51.81
2023-05-12T19:13:08.023Z,55.90
2023-05-12T19:14:10.649Z,52.43
2023-05-12T19:15:07.941Z,55.30
2023-05-12T19:16:08.143Z,54.36
2023-05-12T19:17:09.916Z,55.17
2023-05-12T19:18:09.384Z,55.77
2023-05-12T19:19:12.072Z,54.07
2023-05-12T19:20:53.835Z,55.47
2023-05-12T19:21:11.568Z,51.36
2023-05-12T19:22:07.919Z,52.99
2023-05-12T19:23:07.911Z,51.25
2023-05-12T19:24:07.914Z,55.78
2023-05-12T19:25:08.465Z,56.83
2023-05-12T19:26:07.867Z,53.18
2023-05-12T19:27:08.948Z,52.48
2023-05-12T19:28:07.989Z,51.01
2023-05-12T19:29:07.868Z,55.60
2023-05-12T19:30:08.791Z,53.04
2023-05-12T19:31:08.377Z,55.24
2023-05-12T19:32:08.038Z,52.27
2023-05-12T19:33:07.899Z,54.72
2023-05-12T19:34:08.848Z,54.83
2023-05-12T19:35:08.151Z,54.63
2023-05-12T19:36:07.818Z,57.00
2023-05-12T19:37:07.825Z,55.07
2023-05-12T19:38:10.714Z,55.07
2023-05-12T19:39:07.765Z,52.18
2023-05-12T19:40:07.983Z,51.84
2023-05-12T19:41:08.547Z,52.44
2023-05-12T19:42:08.437Z,52.46
2023-05-12T19:43:07.917Z,52.05
2023-05-12T19:44:08.386Z,54.50
2023-05-12T19:45:08.740Z,51.79
2023-05-12T19:46:07.826Z,52.64
2023-05-12T19:47:07.864Z,57.37
2023-05-12T19:48:07.802Z,54.36
2023-05-12T19:49:07.677Z,57.77
2023-05-12T19:50:07.707Z,58.22
2023-05-12T19:51:07.866Z,53.38
2023-05-12T19:52:07.677Z,52.28
2023-05-12T19:53:07.867Z,53.90
2023-05-12T19:54:07.607Z,54.13
2023-05-12T19:55:07.769Z,55.50
2023-05-12T19:56:08.869Z,56.95
2023-05-12T19:57:07.784Z,54.91
2023-05-12T19:58:07.633Z,55.03
2023-05-12T19:59:08.436Z,54.96
2023-05-12T20:00:07.776Z,57.24
2023-05-12T20:04:14.737Z,52.40
2023-05-12T20:05:07.097Z,54.53
2023-05-12T20:06:09.708Z,52.51